Time;durP1;ratioP1;P1;durP2;ratioP2;P2;SDS_P1;SDS_P2;PMS_P1;PMS_P2;Temp;Humidity;BMP_temperature;BMP_pressure;BME280_temperature;BME280_humidity;BME280_pressure;Samples;Min_cycle;Max_cycle;Signal;HPM_P1;HPM_P2
2021/09/27 00:00:41;;;;;;;27.67;13.10;;;;;;;10.03;81.69;102063.75;1730415;82;21082;-84
2021/09/27 00:03:12;;;;;;;33.23;16.50;;;;;;;10.01;81.75;102054.00;1730485;82;22811;-84
2021/09/27 00:05:37;;;;;;;44.20;21.55;;;;;;;9.99;81.77;102056.97;1729808;82;20993;-84
2021/09/27 00:08:04;;;;;;;48.38;21.93;;;;;;;9.98;81.81;102060.41;1730305;82;21059;-83
2021/09/27 00:10:48;;;;;;;38.38;18.95;;;;;;;9.96;81.74;102063.38;1730306;82;21070;-83
2021/09/27 00:13:17;;;;;;;28.75;16.55;;;;;;;9.92;81.81;102063.22;1717045;82;21012;-84
2021/09/27 00:15:48;;;;;;;28.45;14.58;;;;;;;9.91;81.88;102062.75;1731490;82;21772;-84
2021/09/27 00:18:15;;;;;;;22.77;13.85;;;;;;;9.90;81.91;102061.36;1738392;82;21130;-83
2021/09/27 00:20:51;;;;;;;25.75;13.18;;;;;;;9.86;81.88;102058.98;1737981;82;21497;-83
2021/09/27 00:23:18;;;;;;;25.32;12.33;;;;;;;9.84;81.97;102051.87;1747975;81;21078;-83
2021/09/27 00:25:47;;;;;;;22.40;11.73;;;;;;;9.82;81.98;102054.41;1750353;81;21171;-82
2021/09/27 00:28:14;;;;;;;22.58;12.43;;;;;;;9.80;81.96;102052.52;1751395;81;22888;-82
2021/09/27 00:30:41;;;;;;;24.45;12.95;;;;;;;9.78;81.97;102055.09;1751365;81;21054;-82
2021/09/27 00:33:08;;;;;;;22.10;12.73;;;;;;;9.76;81.97;102051.49;1751379;80;21059;-83
2021/09/27 00:35:36;;;;;;;29.80;13.35;;;;;;;9.73;82.00;102050.91;1751365;81;21089;-82
2021/09/27 00:38:03;;;;;;;24.12;12.18;;;;;;;9.71;82.04;102056.93;1730016;81;21102;-82
2021/09/27 00:40:34;;;;;;;23.15;11.93;;;;;;;9.69;82.03;102052.91;1751178;81;21760;-83
2021/09/27 00:43:01;;;;;;;21.17;11.63;;;;;;;9.66;82.06;102046.59;1750789;81;21062;-84
2021/09/27 00:45:31;;;;;;;20.92;10.98;;;;;;;9.65;82.07;102048.33;1751139;81;21113;-84
2021/09/27 00:47:58;;;;;;;21.65;11.68;;;;;;;9.63;82.05;102043.80;1751245;81;21085;-84
2021/09/27 00:50:29;;;;;;;24.87;11.10;;;;;;;9.60;82.14;102043.24;1751142;81;21038;-84
2021/09/27 00:52:57;;;;;;;18.95;10.90;;;;;;;9.59;82.15;102042.77;1750587;81;21379;-84
2021/09/27 00:55:24;;;;;;;20.62;11.45;;;;;;;9.57;82.15;102050.07;1751075;80;21090;-84
2021/09/27 00:57:53;;;;;;;21.40;11.08;;;;;;;9.54;82.28;102048.20;1729502;81;22317;-83
2021/09/27 01:00:23;;;;;;;21.52;10.58;;;;;;;9.53;82.20;102046.39;1751164;81;21082;-84
2021/09/27 01:02:50;;;;;;;20.55;11.12;;;;;;;9.50;82.23;102046.25;1751348;81;21634;-84
2021/09/27 01:05:18;;;;;;;25.57;10.48;;;;;;;9.48;82.26;102042.65;1751118;80;21790;-84
2021/09/27 01:08:07;;;;;;;20.97;10.60;;;;;;;9.43;82.17;102047.66;1750965;81;21042;-83
2021/09/27 01:10:55;;;;;;;22.62;10.38;;;;;;;9.42;82.24;102048.50;1732346;80;21069;-83
2021/09/27 01:13:49;;;;;;;18.80;10.05;;;;;;;9.41;82.34;102048.42;1741628;81;21046;-84
2021/09/27 01:16:58;;;;;;;19.07;8.58;;;;;;;9.37;82.21;102051.30;1750265;81;21050;-83
2021/09/27 01:20:01;;;;;;;18.42;10.23;;;;;;;9.34;82.48;102045.45;1737347;82;22713;-84
2021/09/27 01:22:55;;;;;;;19.30;10.03;;;;;;;9.33;82.50;102044.98;1738519;82;21039;-84
2021/09/27 01:25:50;;;;;;;24.73;10.23;;;;;;;9.32;82.55;102048.84;1742041;82;21591;-83
2021/09/27 01:29:12;;;;;;;21.42;10.43;;;;;;;9.30;82.59;102050.49;1741987;82;21074;-84
2021/09/27 01:32:03;;;;;;;19.90;9.20;;;;;;;9.26;82.60;102050.75;1742384;82;21039;-84
2021/09/27 01:34:40;;;;;;;17.62;9.40;;;;;;;9.22;82.57;102049.20;1742182;82;21771;-84
2021/09/27 01:37:31;;;;;;;18.75;10.28;;;;;;;9.19;82.57;102047.30;1736208;81;21289;-83
2021/09/27 01:40:15;;;;;;;19.55;9.15;;;;;;;9.15;82.58;102045.35;1742551;82;21078;-84
2021/09/27 01:43:19;;;;;;;17.57;9.65;;;;;;;9.13;82.65;102049.63;1741722;82;21553;-83
2021/09/27 01:46:00;;;;;;;18.55;9.95;;;;;;;9.10;82.63;102049.06;1730211;82;21738;-83
2021/09/27 01:48:37;;;;;;;19.23;10.05;;;;;;;9.05;82.59;102049.23;1715754;81;21790;-82
2021/09/27 01:51:20;;;;;;;19.75;9.60;;;;;;;9.02;82.64;102044.23;1704794;84;21079;-83
2021/09/27 01:54:15;;;;;;;20.13;9.90;;;;;;;8.97;82.61;102040.45;1704141;83;21630;-82
2021/09/27 01:57:14;;;;;;;16.93;9.05;;;;;;;8.94;82.58;102036.84;1701018;84;21047;-85
2021/09/27 01:59:48;;;;;;;20.75;9.60;;;;;;;8.90;82.61;102041.45;1700701;84;21051;-84
2021/09/27 02:02:23;;;;;;;15.93;9.45;;;;;;;8.88;82.64;102049.66;1682979;84;22595;-85
2021/09/27 02:05:04;;;;;;;24.43;10.40;;;;;;;8.86;82.70;102050.38;1700596;83;21066;-91
2021/09/27 02:07:33;;;;;;;21.07;11.68;;;;;;;8.86;82.79;102053.94;1700628;82;21053;-93
2021/09/27 02:10:14;;;;;;;24.02;10.70;;;;;;;8.85;82.76;102052.12;1700471;82;21318;-93
2021/09/27 02:12:49;;;;;;;18.00;10.05;;;;;;;8.81;82.68;102055.41;1700968;84;21014;-91
2021/09/27 02:15:41;;;;;;;20.20;9.80;;;;;;;8.79;82.72;102062.72;1701536;84;21769;-91
2021/09/27 02:18:28;;;;;;;20.15;9.73;;;;;;;8.77;82.71;102060.43;1693865;83;21047;-91
2021/09/27 02:20:59;;;;;;;17.60;9.98;;;;;;;8.73;82.73;102063.30;1701658;84;21157;-91
2021/09/27 02:23:31;;;;;;;19.00;10.13;;;;;;;8.71;82.74;102066.25;1699969;84;21038;-91
2021/09/27 02:25:57;;;;;;;17.10;9.23;;;;;;;8.69;82.79;102063.92;1701561;83;21027;-91
2021/09/27 02:28:25;;;;;;;20.25;10.15;;;;;;;8.68;82.78;102068.70;1701719;83;21811;-90
2021/09/27 02:31:08;;;;;;;17.37;9.63;;;;;;;8.65;82.77;102062.89;1701280;84;21062;-90
2021/09/27 02:33:58;;;;;;;24.90;10.78;;;;;;;8.63;82.71;102059.25;1701786;84;21086;-90
2021/09/27 02:36:42;;;;;;;16.25;9.85;;;;;;;8.60;82.73;102056.91;1701294;84;21004;-90
2021/09/27 02:39:28;;;;;;;18.32;9.48;;;;;;;8.58;82.78;102059.44;1700977;83;21078;-89
2021/09/27 02:42:06;;;;;;;20.57;9.13;;;;;;;8.57;82.86;102064.17;1701247;84;21812;-89
2021/09/27 02:44:33;;;;;;;23.42;10.40;;;;;;;8.56;82.95;102058.03;1702546;83;21039;-89
2021/09/27 02:47:00;;;;;;;18.23;9.55;;;;;;;8.54;82.87;102054.84;1704453;83;21054;-90
2021/09/27 02:49:30;;;;;;;23.07;9.65;;;;;;;8.52;82.87;102056.07;1704653;84;21074;-90
2021/09/27 02:52:00;;;;;;;18.00;9.20;;;;;;;8.50;82.88;102058.09;1708020;84;21065;-87
2021/09/27 02:54:37;;;;;;;21.48;9.40;;;;;;;8.48;82.85;102057.11;1707666;83;21737;-88
2021/09/27 02:57:32;;;;;;;21.40;9.20;;;;;;;8.46;82.90;102067.52;1707814;84;21054;-81
2021/09/27 03:00:09;;;;;;;15.93;9.20;;;;;;;8.47;82.97;102067.14;1710557;82;21093;-82
2021/09/27 03:03:14;;;;;;;18.60;8.93;;;;;;;8.45;82.84;102069.67;1710442;83;21102;-81
2021/09/27 03:05:49;;;;;;;21.93;9.60;;;;;;;8.41;82.80;102073.30;1710660;83;21049;-82
2021/09/27 03:08:47;;;;;;;16.00;8.70;;;;;;;8.38;82.82;102078.88;1710674;82;21783;-89
2021/09/27 03:11:46;;;;;;;15.85;8.73;;;;;;;8.35;82.82;102078.73;1710675;83;21089;-92
2021/09/27 03:14:37;;;;;;;16.48;8.90;;;;;;;8.33;82.81;102080.37;1711749;83;21031;-91
2021/09/27 03:17:35;;;;;;;16.35;8.85;;;;;;;8.28;82.83;102073.95;1709907;83;21579;-91
2021/09/27 03:20:57;;;;;;;14.30;8.45;;;;;;;8.27;82.86;102068.20;1710843;82;21571;-91
2021/09/27 03:23:47;;;;;;;15.65;8.53;;;;;;;8.25;82.92;102069.84;1709240;83;22442;-92
2021/09/27 03:26:41;;;;;;;19.50;8.70;;;;;;;8.22;82.90;102071.00;1711190;83;21109;-92
2021/09/27 03:29:33;;;;;;;22.10;9.00;;;;;;;8.20;82.97;102066.05;1711364;83;21042;-90
2021/09/27 03:32:17;;;;;;;19.98;8.53;;;;;;;8.20;83.11;102072.60;1709157;83;21066;-88
2021/09/27 03:35:12;;;;;;;19.25;7.95;;;;;;;8.20;83.12;102067.77;1707653;84;21081;-89
2021/09/27 03:37:45;;;;;;;13.25;8.60;;;;;;;8.19;83.14;102072.12;1707682;83;21761;-89
2021/09/27 03:40:23;;;;;;;17.42;8.93;;;;;;;8.18;83.18;102069.00;1710197;82;21070;-91
2021/09/27 03:43:11;;;;;;;14.25;7.60;;;;;;;8.15;83.10;102073.67;1709894;83;21023;-92
2021/09/27 03:46:01;;;;;;;15.30;8.40;;;;;;;8.14;83.16;102078.41;1669875;85;21092;-90
2021/09/27 03:48:56;;;;;;;16.62;7.70;;;;;;;8.12;83.16;102066.93;1670157;85;21069;-91
2021/09/27 03:51:32;;;;;;;14.10;8.28;;;;;;;8.12;83.09;102066.93;1626027;85;21802;-91
2021/09/27 03:54:23;;;;;;;16.32;8.30;;;;;;;8.10;83.09;102071.61;1667121;85;21103;-90
2021/09/27 03:56:59;;;;;;;17.67;7.30;;;;;;;8.08;83.13;102066.27;1669048;85;21094;-90
2021/09/27 03:59:49;;;;;;;18.55;8.25;;;;;;;8.06;83.08;102062.66;1670684;85;21073;-81
2021/09/27 04:02:35;;;;;;;13.05;7.62;;;;;;;8.06;83.12;102060.46;1669388;85;21679;-82
2021/09/27 04:05:25;;;;;;;24.20;7.65;;;;;;;8.02;83.04;102060.69;1669766;85;21772;-81
2021/09/27 04:08:06;;;;;;;16.75;7.95;;;;;;;7.99;83.10;102059.20;1667286;85;21709;-81
2021/09/27 04:10:45;;;;;;;14.90;6.92;;;;;;;8.00;83.15;102061.02;1651124;86;21158;-83
2021/09/27 04:13:34;;;;;;;17.73;8.15;;;;;;;7.98;83.14;102058.72;1650958;86;21551;-87
2021/09/27 04:16:09;;;;;;;15.60;7.65;;;;;;;7.98;83.22;102060.03;1667318;85;21104;-83
2021/09/27 04:19:03;;;;;;;21.42;8.78;;;;;;;7.98;83.26;102057.41;1673274;85;22670;-84
2021/09/27 04:21:33;;;;;;;;;;;;;;;7.99;83.26;102065.75;1670762;85;21060;-88
2021/09/27 04:24:30;;;;;;;18.32;7.72;;;;;;;7.99;83.32;102068.38;1710259;82;20288;-87
2021/09/27 04:27:31;;;;;;;18.48;8.18;;;;;;;7.98;83.29;102063.55;1710455;83;21063;-88
2021/09/27 04:30:54;;;;;;;13.75;7.15;;;;;;;7.99;83.33;102069.69;1711410;82;21095;-88
2021/09/27 04:33:44;;;;;;;14.23;6.40;;;;;;;7.99;83.38;102064.44;1708797;83;21791;-88
2021/09/27 04:36:18;;;;;;;14.38;7.17;;;;;;;8.02;83.44;102067.25;1708323;83;21053;-90
2021/09/27 04:38:50;;;;;;;15.68;7.37;;;;;;;8.03;83.51;102063.79;1708631;83;21051;-88
2021/09/27 04:41:39;;;;;;;17.40;8.33;;;;;;;8.05;83.43;102063.88;1709010;83;21059;-89
2021/09/27 04:44:45;;;;;;;21.70;8.50;;;;;;;8.08;83.41;102064.07;1709619;83;21523;-89
2021/09/27 04:47:43;;;;;;;13.95;7.17;;;;;;;8.10;83.31;102067.26;1716313;83;22591;-90
2021/09/27 04:50:51;;;;;;;15.48;8.00;;;;;;;8.13;83.32;102071.80;1715537;82;21187;-88
2021/09/27 04:54:01;;;;;;;15.98;8.20;;;;;;;8.15;83.20;102074.98;1698200;82;21075;-91
2021/09/27 04:57:07;;;;;;;13.58;7.30;;;;;;;8.20;83.25;102077.84;1716153;83;21048;-89
2021/09/27 04:59:54;;;;;;;13.62;7.62;;;;;;;8.22;83.18;102076.25;1709110;83;20984;-89
2021/09/27 05:02:35;;;;;;;15.13;8.05;;;;;;;8.25;83.17;102073.77;1716013;83;21725;-86
2021/09/27 05:05:19;;;;;;;16.27;8.30;;;;;;;8.31;83.24;102075.41;1714946;82;21528;-84
2021/09/27 05:08:07;;;;;;;16.75;8.43;;;;;;;8.40;83.18;102077.66;1714214;83;21046;-85
2021/09/27 05:10:50;;;;;;;17.77;8.40;;;;;;;8.47;83.07;102077.63;1714785;83;21019;-83
2021/09/27 05:13:25;;;;;;;15.35;8.23;;;;;;;8.56;83.23;102079.03;1715254;83;27008;-84
2021/09/27 05:16:32;;;;;;;18.42;8.83;;;;;;;8.67;83.04;102081.32;1715080;83;22574;-84
2021/09/27 05:19:25;;;;;;;16.00;8.30;;;;;;;8.73;83.13;102074.69;1714765;83;21062;-85
2021/09/27 05:22:47;;;;;;;16.15;7.78;;;;;;;8.83;83.07;102077.39;1714549;82;21603;-85
2021/09/27 05:25:20;;;;;;;16.45;7.58;;;;;;;8.92;83.04;102073.95;1714444;82;21364;-85
2021/09/27 05:28:33;;;;;;;13.53;7.50;;;;;;;9.00;82.90;102072.14;1704037;83;21015;-85
2021/09/27 05:31:40;;;;;;;15.98;7.28;;;;;;;9.05;82.87;102078.13;1715133;82;21764;-84
2021/09/27 05:34:38;;;;;;;11.40;6.28;;;;;;;9.14;82.93;102078.99;1715249;82;21050;-84
2021/09/27 05:37:28;;;;;;;16.15;7.55;;;;;;;9.25;83.16;102072.99;1715475;82;21078;-91
2021/09/27 05:40:09;;;;;;;12.98;6.80;;;;;;;9.36;83.12;102072.23;1715369;83;21214;-90
2021/09/27 05:43:21;;;;;;;11.75;6.25;;;;;;;9.45;83.13;102080.17;1715334;82;21090;-91
2021/09/27 05:46:05;;;;;;;15.60;7.60;;;;;;;9.53;83.08;102072.67;1713378;82;21791;-92
2021/09/27 05:48:47;;;;;;;;;;;;;;;9.66;83.15;102074.19;1718737;82;21659;-91
2021/09/27 05:51:31;;;;;;;7.58;5.08;;;;;;;9.76;83.07;102070.28;1710247;83;20194;-92
2021/09/27 05:54:21;;;;;;;17.32;7.87;;;;;;;9.82;83.00;102070.19;1717651;83;21129;-91
2021/09/27 05:57:10;;;;;;;23.00;10.80;;;;;;;9.91;83.03;102069.33;1718905;83;21043;-91
2021/09/27 05:59:45;;;;;;;38.63;18.60;;;;;;;10.01;82.92;102071.98;1719121;82;21204;-91
2021/09/27 06:02:56;;;;;;;51.48;23.30;;;;;;;10.09;82.85;102073.67;1710204;83;21003;-91
2021/09/27 06:05:38;;;;;;;43.23;19.52;;;;;;;10.14;82.70;102069.54;1716042;83;21035;-92
2021/09/27 06:08:27;;;;;;;22.20;12.28;;;;;;;10.24;82.67;102069.13;1713922;82;21130;-92
2021/09/27 06:11:10;;;;;;;11.15;6.85;;;;;;;10.33;82.56;102066.08;1716237;82;21067;-91
2021/09/27 06:13:37;;;;;;;9.75;5.97;;;;;;;10.40;82.30;102065.94;1721728;82;22619;-91
2021/09/27 06:16:36;;;;;;;10.68;5.20;;;;;;;10.42;82.12;102066.52;1716871;83;21007;-92
2021/09/27 06:19:17;;;;;;;10.20;5.37;;;;;;;10.45;82.10;102071.01;1713790;82;21090;-92
2021/09/27 06:22:21;;;;;;;9.25;5.50;;;;;;;10.49;81.97;102071.24;1718113;83;21244;-91
2021/09/27 06:25:21;;;;;;;11.68;5.20;;;;;;;10.52;81.91;102070.89;1709616;83;21097;-92
2021/09/27 06:28:37;;;;;;;12.23;5.62;;;;;;;10.58;81.94;102074.69;1711160;83;21803;-91
2021/09/27 06:31:09;;;;;;;9.73;5.22;;;;;;;10.63;81.80;102073.61;1713808;82;21055;-91
2021/09/27 06:33:52;;;;;;;8.28;4.55;;;;;;;10.67;81.71;102069.85;1719344;83;21543;-91
2021/09/27 06:36:22;;;;;;;11.27;4.70;;;;;;;10.72;81.71;102071.39;1720630;82;21285;-91
2021/09/27 06:38:56;;;;;;;11.05;5.22;;;;;;;10.76;81.61;102070.70;1721601;83;21089;-91
2021/09/27 06:41:26;;;;;;;7.67;4.17;;;;;;;10.83;81.71;102063.95;1720427;82;22552;-91
2021/09/27 06:43:52;;;;;;;9.03;4.87;;;;;;;10.91;81.64;102066.97;1717067;82;21591;-92
2021/09/27 06:46:19;;;;;;;8.65;4.60;;;;;;;10.95;81.52;102067.16;1716910;82;21019;-91
2021/09/27 06:48:48;;;;;;;9.30;5.58;;;;;;;11.01;81.44;102077.06;1715164;83;21486;-91
2021/09/27 06:51:15;;;;;;;9.15;4.42;;;;;;;11.09;81.44;102076.97;1715311;82;21066;-91
2021/09/27 06:53:41;;;;;;;5.03;3.90;;;;;;;11.16;81.36;102072.89;1713572;83;22588;-85
2021/09/27 06:56:08;;;;;;;9.15;4.40;;;;;;;11.24;81.27;102080.70;1708586;83;21066;-92
2021/09/27 06:58:34;;;;;;;6.78;4.00;;;;;;;11.39;81.28;102081.39;1710531;83;21580;-85
2021/09/27 07:01:01;;;;;;;8.58;4.08;;;;;;;11.53;81.02;102081.08;1708197;83;21262;-85
2021/09/27 07:03:28;;;;;;;9.30;3.92;;;;;;;11.63;80.78;102076.23;1711225;82;21063;-85
2021/09/27 07:05:55;;;;;;;6.17;4.58;;;;;;;11.77;80.68;102075.90;1711385;83;21807;-92
2021/09/27 07:08:23;;;;;;;9.33;4.65;;;;;;;11.89;80.59;102073.78;1709716;83;21000;-92
2021/09/27 07:10:51;;;;;;;12.25;5.05;;;;;;;12.03;80.51;102075.67;1710455;83;21047;-92
2021/09/27 07:13:18;;;;;;;8.20;4.92;;;;;;;12.13;80.25;102071.27;1710195;82;21016;-91
2021/09/27 07:15:44;;;;;;;7.80;4.40;;;;;;;12.24;80.10;102073.02;1709278;83;21489;-85
2021/09/27 07:18:11;;;;;;;7.35;4.53;;;;;;;12.34;79.95;102075.16;1707917;83;21760;-85
2021/09/27 07:20:38;;;;;;;9.63;4.30;;;;;;;12.45;79.89;102074.27;1708439;83;21078;-91
2021/09/27 07:23:04;;;;;;;7.40;4.35;;;;;;;12.59;79.82;102081.38;1710922;83;21027;-91
2021/09/27 07:25:32;;;;;;;7.62;4.42;;;;;;;12.74;79.58;102079.74;1711469;82;21043;-92
2021/09/27 07:27:59;;;;;;;7.65;3.83;;;;;;;12.81;79.12;102073.84;1711385;82;21066;-92
2021/09/27 07:30:26;;;;;;;7.70;3.98;;;;;;;12.92;79.02;102084.39;1708261;83;22528;-85
2021/09/27 07:32:55;;;;;;;9.00;4.08;;;;;;;13.04;79.02;102079.97;1710051;83;21109;-85
2021/09/27 07:35:24;;;;;;;8.55;4.33;;;;;;;13.20;78.93;102081.00;1708265;83;21070;-85
2021/09/27 07:37:51;;;;;;;9.55;4.00;;;;;;;13.37;78.78;102080.73;1710819;83;21171;-84
2021/09/27 07:40:21;;;;;;;10.98;4.53;;;;;;;13.54;78.61;102081.32;1709847;82;21117;-84
2021/09/27 07:42:48;;;;;;;9.25;4.00;;;;;;;13.69;78.30;102069.03;1707152;83;22594;-85
2021/09/27 07:45:16;;;;;;;10.60;4.20;;;;;;;13.84;78.20;102069.97;1710616;82;21485;-85
2021/09/27 07:47:43;;;;;;;7.45;4.00;;;;;;;14.03;78.24;102073.67;1717723;82;21020;-85
2021/09/27 07:50:11;;;;;;;8.20;3.92;;;;;;;14.18;77.65;102064.88;1718145;82;21560;-85
2021/09/27 07:52:37;;;;;;;6.83;3.87;;;;;;;14.32;77.42;102067.05;1712457;83;20995;-85
2021/09/27 07:55:05;;;;;;;7.30;3.92;;;;;;;14.45;77.29;102065.68;1712143;83;21765;-91
2021/09/27 07:57:32;;;;;;;6.45;3.60;;;;;;;14.56;76.97;102064.25;1712574;83;21054;-85
2021/09/27 07:59:59;;;;;;;6.85;4.10;;;;;;;14.64;76.75;102064.11;1711943;83;21003;-92
2021/09/27 08:02:30;;;;;;;8.38;3.55;;;;;;;14.70;76.56;102060.73;1712627;83;21074;-91
2021/09/27 08:04:54;;;;;;;8.40;3.80;;;;;;;14.74;76.36;102065.27;1712469;83;21047;-92
2021/09/27 08:07:21;;;;;;;5.17;3.35;;;;;;;14.72;76.03;102059.03;1712717;83;21749;-92
2021/09/27 08:09:48;;;;;;;6.62;3.80;;;;;;;14.66;75.78;102062.80;1712916;83;21039;-92
2021/09/27 08:12:15;;;;;;;6.50;3.30;;;;;;;14.61;75.77;102060.47;1712915;83;21046;-92
2021/09/27 08:14:41;;;;;;;7.50;3.92;;;;;;;14.61;75.86;102059.14;1712894;83;21233;-93
2021/09/27 08:17:08;;;;;;;6.45;4.42;;;;;;;14.62;75.78;102055.62;1712769;83;21070;-93
2021/09/27 08:19:38;;;;;;;6.05;3.55;;;;;;;14.61;75.67;102051.19;1712752;83;21797;-92
2021/09/27 08:22:05;;;;;;;5.15;3.22;;;;;;;14.60;75.58;102056.00;1712557;83;21051;-93
2021/09/27 08:24:32;;;;;;;4.40;2.60;;;;;;;14.64;75.67;102052.18;1712741;83;21122;-93
2021/09/27 08:26:59;;;;;;;9.60;3.37;;;;;;;14.68;75.36;102051.41;1712702;83;20988;-92
2021/09/27 08:29:26;;;;;;;5.72;3.00;;;;;;;14.71;75.44;102052.80;1712522;83;21083;-92
2021/09/27 08:31:52;;;;;;;5.33;2.87;;;;;;;14.75;75.34;102056.04;1712729;83;21795;-93
2021/09/27 08:34:19;;;;;;;8.15;4.10;;;;;;;14.76;75.05;102054.28;1712665;83;21549;-92
2021/09/27 08:36:48;;;;;;;6.35;3.12;;;;;;;14.78;74.97;102051.23;1712728;83;21078;-93
2021/09/27 08:39:15;;;;;;;5.50;2.67;;;;;;;14.82;74.96;102054.88;1712522;83;21063;-93
2021/09/27 08:42:11;;;;;;;6.30;2.98;;;;;;;14.85;74.91;102051.89;1712830;83;21110;-94
2021/09/27 08:45:01;;;;;;;6.40;2.77;;;;;;;14.91;74.77;102051.16;1712143;83;21773;-93
2021/09/27 08:48:13;;;;;;;3.67;2.58;;;;;;;14.96;74.44;102044.25;1665007;85;21138;-91
2021/09/27 08:50:43;;;;;;;5.45;3.08;;;;;;;15.01;74.54;102040.37;1651443;86;21031;-92
2021/09/27 08:53:33;;;;;;;6.10;2.80;;;;;;;15.08;74.36;102039.26;1661721;86;21115;-92
2021/09/27 08:56:04;;;;;;;8.53;2.45;;;;;;;15.13;74.21;102038.97;1665071;86;21111;-92
2021/09/27 08:58:39;;;;;;;6.08;2.83;;;;;;;15.18;73.99;102039.07;1592130;89;22741;-93
2021/09/27 09:01:12;;;;;;;3.67;2.27;;;;;;;15.23;73.92;102035.23;1619965;87;21108;-92
2021/09/27 09:03:47;;;;;;;7.40;2.83;;;;;;;15.28;73.66;102032.28;1670160;85;21099;-93
2021/09/27 09:06:41;;;;;;;3.87;2.22;;;;;;;15.29;73.39;102032.30;1665707;86;21564;-93
2021/09/27 09:09:13;;;;;;;6.03;2.67;;;;;;;15.33;73.29;102031.55;1666136;86;21281;-93
2021/09/27 09:11:57;;;;;;;9.00;2.80;;;;;;;15.35;72.96;102031.16;1665158;86;21731;-93
2021/09/27 09:14:45;;;;;;;;;;;;;;;15.39;72.85;102033.86;1668562;86;21054;-93
2021/09/27 09:17:38;;;;;;;5.25;2.40;;;;;;;15.43;72.79;102028.69;1676343;85;20211;-93
2021/09/27 09:20:13;;;;;;;4.78;2.30;;;;;;;15.50;72.75;102028.40;1669944;85;21051;-90
2021/09/27 09:22:42;;;;;;;7.03;2.08;;;;;;;15.54;72.51;102022.30;1665950;86;21281;-92
2021/09/27 09:25:20;;;;;;;5.00;2.42;;;;;;;15.55;72.22;102017.48;1702532;83;21931;-92
2021/09/27 09:27:47;;;;;;;8.13;2.33;;;;;;;15.59;72.28;102020.67;1715377;83;21011;-85
2021/09/27 09:30:14;;;;;;;5.55;2.80;;;;;;;15.65;72.10;102018.59;1705603;83;21043;-91
2021/09/27 09:32:41;;;;;;;6.03;2.67;;;;;;;15.71;72.06;102013.42;1705639;84;21296;-92
2021/09/27 09:35:24;;;;;;;5.95;2.30;;;;;;;15.78;71.88;102007.88;1705689;83;21090;-92
2021/09/27 09:38:02;;;;;;;4.87;2.50;;;;;;;15.82;71.71;102010.66;1706003;83;22580;-92
2021/09/27 09:40:34;;;;;;;4.37;2.40;;;;;;;15.85;71.43;102009.83;1704095;83;21497;-92
2021/09/27 09:43:11;;;;;;;4.10;2.10;;;;;;;15.91;71.61;102008.19;1698644;84;21055;-92
2021/09/27 09:45:49;;;;;;;3.12;2.00;;;;;;;15.98;71.20;102010.57;1705643;83;21149;-92
2021/09/27 09:48:25;;;;;;;4.47;2.17;;;;;;;16.02;71.09;102009.77;1707691;83;21016;-93
2021/09/27 09:50:56;;;;;;;5.42;2.55;;;;;;;16.09;70.95;102010.38;1710733;83;21801;-92
2021/09/27 09:53:32;;;;;;;5.65;2.08;;;;;;;16.12;70.55;102008.21;1711618;83;21078;-92
2021/09/27 09:56:09;;;;;;;3.35;1.98;;;;;;;16.13;70.49;102012.23;1708784;83;21031;-92
2021/09/27 09:58:49;;;;;;;4.47;2.20;;;;;;;16.18;70.30;102000.81;1709117;83;21019;-92
2021/09/27 10:01:33;;;;;;;3.67;2.30;;;;;;;16.21;70.26;101998.23;1707965;83;21019;-93
2021/09/27 10:04:14;;;;;;;9.73;2.55;;;;;;;16.23;70.09;101989.42;1710657;83;21868;-93
2021/09/27 10:06:47;;;;;;;5.37;1.90;;;;;;;16.29;69.92;101982.02;1700088;83;21011;-93
2021/09/27 10:09:33;;;;;;;4.95;2.33;;;;;;;16.32;69.57;101984.75;1708564;83;21665;-93
2021/09/27 10:12:06;;;;;;;6.17;2.37;;;;;;;16.37;69.61;101988.81;1711483;83;21047;-92
2021/09/27 10:14:43;;;;;;;4.58;2.10;;;;;;;16.39;69.45;101980.03;1708546;83;21020;-93
2021/09/27 10:17:30;;;;;;;5.28;2.25;;;;;;;16.44;69.39;101979.70;1708835;83;21846;-93
2021/09/27 10:20:11;;;;;;;4.65;2.37;;;;;;;16.50;69.31;101981.15;1710655;83;21055;-93
2021/09/27 10:22:39;;;;;;;5.50;2.55;;;;;;;16.57;68.86;101981.27;1707072;83;21154;-86
2021/09/27 10:25:35;;;;;;;3.20;1.90;;;;;;;16.59;68.44;101980.86;1709991;83;21536;-85
2021/09/27 10:28:04;;;;;;;4.12;1.87;;;;;;;16.58;68.24;101982.63;1710835;83;21015;-85
2021/09/27 10:30:56;;;;;;;3.65;1.90;;;;;;;16.61;68.30;101977.38;1710849;82;21765;-85
2021/09/27 10:33:28;;;;;;;9.75;2.55;;;;;;;16.67;68.23;101980.59;1710788;83;21066;-86
2021/09/27 10:36:26;;;;;;;4.25;2.10;;;;;;;16.75;68.15;101990.05;1708119;83;21106;-85
2021/09/27 10:38:58;;;;;;;8.08;6.87;;;;;;;16.80;67.73;101983.03;1704946;83;21187;-85
2021/09/27 10:41:48;;;;;;;3.15;2.22;;;;;;;16.80;67.54;101973.31;1708159;83;21079;-85
2021/09/27 10:44:22;;;;;;;7.08;2.10;;;;;;;16.83;67.38;101969.39;1710564;83;21689;-85
2021/09/27 10:46:52;;;;;;;3.30;2.00;;;;;;;16.83;67.10;101972.05;1712364;82;20988;-86
2021/09/27 10:49:28;;;;;;;7.62;4.87;;;;;;;16.88;67.05;101979.70;1714553;83;21054;-85
2021/09/27 10:52:08;;;;;;;5.87;2.77;;;;;;;16.89;66.97;101961.55;1714787;82;21958;-85
2021/09/27 10:54:43;;;;;;;4.37;2.35;;;;;;;16.94;66.66;101972.70;1705417;83;21031;-86
2021/09/27 10:57:15;;;;;;;5.65;1.75;;;;;;;16.98;66.30;101962.58;1711137;83;21780;-85
2021/09/27 10:59:53;;;;;;;3.90;2.45;;;;;;;17.02;66.25;101959.09;1714585;82;21038;-85
2021/09/27 11:02:28;;;;;;;6.10;1.70;;;;;;;17.06;66.03;101956.53;1715075;82;21505;-85
2021/09/27 11:04:58;;;;;;;2.85;1.70;;;;;;;17.10;65.75;101954.83;1715298;83;21066;-85
2021/09/27 11:07:45;;;;;;;2.60;1.60;;;;;;;17.14;65.42;101959.33;1704852;83;21035;-85
2021/09/27 11:10:40;;;;;;;6.22;2.00;;;;;;;17.16;65.43;101948.27;1715170;82;21765;-85
2021/09/27 11:13:07;;;;;;;3.65;1.80;;;;;;;17.22;65.45;101949.70;1714313;82;21187;-86
2021/09/27 11:15:37;;;;;;;3.67;1.95;;;;;;;17.30;65.33;101949.82;1714958;83;21073;-86
2021/09/27 11:18:12;;;;;;;4.58;1.67;;;;;;;17.35;65.05;101940.60;1715025;82;21035;-86
2021/09/27 11:20:51;;;;;;;3.20;1.75;;;;;;;17.37;64.72;101941.07;1715079;83;21118;-86
2021/09/27 11:23:37;;;;;;;5.50;2.05;;;;;;;17.40;64.36;101939.80;1715151;83;21727;-86
2021/09/27 11:26:21;;;;;;;9.63;1.95;;;;;;;17.42;63.99;101939.39;1715044;82;21041;-85
2021/09/27 11:29:24;;;;;;;2.33;1.82;;;;;;;17.46;63.99;101933.23;1715160;83;21047;-86
2021/09/27 11:32:16;;;;;;;3.47;1.57;;;;;;;17.53;63.94;101927.99;1714751;82;21756;-86
2021/09/27 11:35:08;;;;;;;3.45;1.80;;;;;;;17.58;63.51;101934.30;1695970;82;21066;-85
2021/09/27 11:37:43;;;;;;;3.15;1.55;;;;;;;17.59;63.05;101925.00;1715222;83;21800;-85
2021/09/27 11:40:18;;;;;;;4.50;1.70;;;;;;;17.60;62.90;101928.11;1704781;83;21077;-85
2021/09/27 11:43:14;;;;;;;3.40;1.65;;;;;;;17.61;62.72;101921.04;1714584;82;21141;-85
2021/09/27 11:46:07;;;;;;;7.47;2.08;;;;;;;17.64;62.61;101914.41;1714938;82;21004;-85
2021/09/27 11:48:49;;;;;;;3.83;1.57;;;;;;;17.65;62.41;101920.20;1710794;82;21039;-85
2021/09/27 11:51:20;;;;;;;3.70;1.92;;;;;;;17.66;62.25;101917.57;1711767;83;21813;-85
2021/09/27 11:54:17;;;;;;;2.08;1.42;;;;;;;17.69;62.09;101921.59;1711991;83;21019;-85
2021/09/27 11:57:16;;;;;;;4.75;1.90;;;;;;;17.70;61.92;101902.53;1712056;83;21550;-85
2021/09/27 12:00:00;;;;;;;2.58;1.15;;;;;;;17.72;61.96;101903.45;1711878;83;21040;-85
2021/09/27 12:02:32;;;;;;;3.27;1.60;;;;;;;17.74;61.73;101894.16;1712154;83;21047;-85
2021/09/27 12:05:23;;;;;;;4.90;1.75;;;;;;;17.77;61.59;101903.05;1712151;82;21792;-85
2021/09/27 12:08:14;;;;;;;5.47;1.57;;;;;;;17.79;61.52;101897.34;1712212;82;21516;-85
2021/09/27 12:10:48;;;;;;;5.78;1.75;;;;;;;17.85;61.50;101900.55;1712155;83;21044;-85
2021/09/27 12:13:22;;;;;;;5.53;3.30;;;;;;;17.85;61.26;101889.91;1712406;83;21019;-85
2021/09/27 12:15:59;;;;;;;4.83;1.40;;;;;;;17.85;61.25;101888.13;1712390;83;20992;-86
2021/09/27 12:18:52;;;;;;;4.67;1.70;;;;;;;17.87;61.03;101888.16;1712302;83;21756;-85
2021/09/27 12:21:26;;;;;;;2.77;1.45;;;;;;;17.87;60.83;101887.70;1712184;83;21015;-84
2021/09/27 12:24:00;;;;;;;2.62;1.40;;;;;;;17.90;60.74;101889.95;1702963;83;21013;-84